sensor_id;sensor_type;location;lat;lon;timestamp;temperature;humidity
24252;DHT22;12380;51.118;4.176;2023-05-07T00:00:44;16.80;99.90
24252;DHT22;12380;51.118;4.176;2023-05-07T00:03:10;16.80;99.90
24252;DHT22;12380;51.118;4.176;2023-05-07T00:05:36;16.80;99.90
24252;DHT22;12380;51.118;4.176;2023-05-07T00:08:04;16.80;99.90
24252;DHT22;12380;51.118;4.176;2023-05-07T00:10:30;16.80;99.90
24252;DHT22;12380;51.118;4.176;2023-05-07T00:12:55;16.70;99.90
24252;DHT22;12380;51.118;4.176;2023-05-07T00:15:24;16.70;99.90
24252;DHT22;12380;51.118;4.176;2023-05-07T00:17:50;16.70;99.90
24252;DHT22;12380;51.118;4.176;2023-05-07T00:20:18;16.70;99.90
24252;DHT22;12380;51.118;4.176;2023-05-07T00:22:43;16.70;99.90
24252;DHT22;12380;51.118;4.176;2023-05-07T00:25:09;16.70;99.90
24252;DHT22;12380;51.118;4.176;2023-05-07T00:27:35;16.80;99.90
24252;DHT22;12380;51.118;4.176;2023-05-07T00:30:01;16.80;99.90
24252;DHT22;12380;51.118;4.176;2023-05-07T00:32:26;16.80;99.90
24252;DHT22;12380;51.118;4.176;2023-05-07T00:34:52;16.70;99.90
24252;DHT22;12380;51.118;4.176;2023-05-07T00:37:17;16.70;99.90
24252;DHT22;12380;51.118;4.176;2023-05-07T00:39:43;16.70;99.90
24252;DHT22;12380;51.118;4.176;2023-05-07T00:42:09;16.70;99.90
24252;DHT22;12380;51.118;4.176;2023-05-07T00:44:34;16.70;99.90
24252;DHT22;12380;51.118;4.176;2023-05-07T00:47:01;16.60;99.90
24252;DHT22;12380;51.118;4.176;2023-05-07T00:49:29;16.50;99.90
24252;DHT22;12380;51.118;4.176;2023-05-07T00:52:05;16.50;99.90
24252;DHT22;12380;51.118;4.176;2023-05-07T00:54:31;16.50;99.90
24252;DHT22;12380;51.118;4.176;2023-05-07T00:56:56;16.50;99.90
24252;DHT22;12380;51.118;4.176;2023-05-07T00:59:22;16.40;99.90
24252;DHT22;12380;51.118;4.176;2023-05-07T01:01:47;16.40;99.90
24252;DHT22;12380;51.118;4.176;2023-05-07T01:04:13;16.30;99.90
24252;DHT22;12380;51.118;4.176;2023-05-07T01:06:41;16.30;99.90
24252;DHT22;12380;51.118;4.176;2023-05-07T01:09:06;16.20;99.90
24252;DHT22;12380;51.118;4.176;2023-05-07T01:11:32;16.20;99.90
24252;DHT22;12380;51.118;4.176;2023-05-07T01:14:00;16.10;99.90
24252;DHT22;12380;51.118;4.176;2023-05-07T01:16:26;16.10;99.90
24252;DHT22;12380;51.118;4.176;2023-05-07T01:18:52;16.10;99.90
24252;DHT22;12380;51.118;4.176;2023-05-07T01:21:23;16.10;99.90
24252;DHT22;12380;51.118;4.176;2023-05-07T01:23:50;16.00;99.90
24252;DHT22;12380;51.118;4.176;2023-05-07T01:26:16;16.00;99.90
24252;DHT22;12380;51.118;4.176;2023-05-07T01:28:41;15.90;99.90
24252;DHT22;12380;51.118;4.176;2023-05-07T01:31:07;15.80;99.90
24252;DHT22;12380;51.118;4.176;2023-05-07T01:33:35;15.80;99.90
24252;DHT22;12380;51.118;4.176;2023-05-07T01:36:02;15.80;99.90
24252;DHT22;12380;51.118;4.176;2023-05-07T01:38:31;15.80;99.90
24252;DHT22;12380;51.118;4.176;2023-05-07T01:40:57;15.80;99.90
24252;DHT22;12380;51.118;4.176;2023-05-07T01:43:23;15.80;99.90
24252;DHT22;12380;51.118;4.176;2023-05-07T01:45:49;15.70;99.90
24252;DHT22;12380;51.118;4.176;2023-05-07T01:48:15;15.80;99.90
24252;DHT22;12380;51.118;4.176;2023-05-07T01:50:44;15.80;99.90
24252;DHT22;12380;51.118;4.176;2023-05-07T01:53:11;15.70;99.90
24252;DHT22;12380;51.118;4.176;2023-05-07T01:55:37;15.70;99.90
24252;DHT22;12380;51.118;4.176;2023-05-07T01:58:03;15.70;99.90
24252;DHT22;12380;51.118;4.176;2023-05-07T02:00:29;15.70;99.90
24252;DHT22;12380;51.118;4.176;2023-05-07T02:02:54;15.70;99.90
24252;DHT22;12380;51.118;4.176;2023-05-07T02:05:20;15.70;99.90
24252;DHT22;12380;51.118;4.176;2023-05-07T02:07:46;15.70;99.90
24252;DHT22;12380;51.118;4.176;2023-05-07T02:10:11;15.80;99.90
24252;DHT22;12380;51.118;4.176;2023-05-07T02:12:37;15.90;99.90
24252;DHT22;12380;51.118;4.176;2023-05-07T02:15:02;15.90;99.90
24252;DHT22;12380;51.118;4.176;2023-05-07T02:17:29;15.90;99.90
24252;DHT22;12380;51.118;4.176;2023-05-07T02:19:57;15.90;99.90
24252;DHT22;12380;51.118;4.176;2023-05-07T02:22:22;15.90;99.90
24252;DHT22;12380;51.118;4.176;2023-05-07T02:24:48;15.90;99.90
24252;DHT22;12380;51.118;4.176;2023-05-07T02:27:14;15.90;99.90
24252;DHT22;12380;51.118;4.176;2023-05-07T02:29:40;16.00;99.90
24252;DHT22;12380;51.118;4.176;2023-05-07T02:32:05;15.90;99.90
24252;DHT22;12380;51.118;4.176;2023-05-07T02:34:33;15.90;99.90
24252;DHT22;12380;51.118;4.176;2023-05-07T02:36:59;16.00;99.90
24252;DHT22;12380;51.118;4.176;2023-05-07T02:39:25;15.90;99.90
24252;DHT22;12380;51.118;4.176;2023-05-07T02:41:50;16.00;99.90
24252;DHT22;12380;51.118;4.176;2023-05-07T02:44:19;16.10;99.90
24252;DHT22;12380;51.118;4.176;2023-05-07T02:46:44;16.00;99.90
24252;DHT22;12380;51.118;4.176;2023-05-07T02:49:12;16.20;99.90
24252;DHT22;12380;51.118;4.176;2023-05-07T02:51:40;16.10;99.90
24252;DHT22;12380;51.118;4.176;2023-05-07T02:54:06;16.00;99.90
24252;DHT22;12380;51.118;4.176;2023-05-07T02:56:32;16.00;99.90
24252;DHT22;12380;51.118;4.176;2023-05-07T02:58:57;16.00;99.90
24252;DHT22;12380;51.118;4.176;2023-05-07T03:01:25;15.90;99.90
24252;DHT22;12380;51.118;4.176;2023-05-07T03:03:51;15.80;99.90
24252;DHT22;12380;51.118;4.176;2023-05-07T03:06:16;16.00;99.90
24252;DHT22;12380;51.118;4.176;2023-05-07T03:08:42;16.00;99.90
24252;DHT22;12380;51.118;4.176;2023-05-07T03:11:07;15.90;99.90
24252;DHT22;12380;51.118;4.176;2023-05-07T03:13:33;16.00;99.90
24252;DHT22;12380;51.118;4.176;2023-05-07T03:15:59;15.90;99.90
24252;DHT22;12380;51.118;4.176;2023-05-07T03:18:24;15.90;99.90
24252;DHT22;12380;51.118;4.176;2023-05-07T03:20:50;16.00;99.90
24252;DHT22;12380;51.118;4.176;2023-05-07T03:23:15;16.10;99.90
24252;DHT22;12380;51.118;4.176;2023-05-07T03:25:41;16.10;99.90
24252;DHT22;12380;51.118;4.176;2023-05-07T03:28:07;16.10;99.90
24252;DHT22;12380;51.118;4.176;2023-05-07T03:30:32;16.10;99.90
24252;DHT22;12380;51.118;4.176;2023-05-07T03:32:58;16.00;99.90
24252;DHT22;12380;51.118;4.176;2023-05-07T03:35:26;15.90;99.90
24252;DHT22;12380;51.118;4.176;2023-05-07T03:37:51;15.80;99.90
24252;DHT22;12380;51.118;4.176;2023-05-07T03:40:17;15.80;99.90
24252;DHT22;12380;51.118;4.176;2023-05-07T03:42:42;15.70;99.90
24252;DHT22;12380;51.118;4.176;2023-05-07T03:45:08;15.80;99.90
24252;DHT22;12380;51.118;4.176;2023-05-07T03:47:34;15.70;99.90
24252;DHT22;12380;51.118;4.176;2023-05-07T03:50:00;15.80;99.90
24252;DHT22;12380;51.118;4.176;2023-05-07T03:52:25;15.80;99.90
24252;DHT22;12380;51.118;4.176;2023-05-07T03:54:52;15.80;99.90
24252;DHT22;12380;51.118;4.176;2023-05-07T03:57:17;15.80;99.90
24252;DHT22;12380;51.118;4.176;2023-05-07T03:59:43;15.70;99.90
24252;DHT22;12380;51.118;4.176;2023-05-07T04:02:09;15.60;99.90
24252;DHT22;12380;51.118;4.176;2023-05-07T04:04:34;15.70;99.90
24252;DHT22;12380;51.118;4.176;2023-05-07T04:07:00;15.80;99.90
24252;DHT22;12380;51.118;4.176;2023-05-07T04:09:25;15.70;99.90
24252;DHT22;12380;51.118;4.176;2023-05-07T04:11:51;15.80;99.90
24252;DHT22;12380;51.118;4.176;2023-05-07T04:14:17;15.70;99.90
24252;DHT22;12380;51.118;4.176;2023-05-07T04:16:45;15.90;99.90
24252;DHT22;12380;51.118;4.176;2023-05-07T04:19:11;15.90;99.90
24252;DHT22;12380;51.118;4.176;2023-05-07T04:21:36;15.80;99.90
24252;DHT22;12380;51.118;4.176;2023-05-07T04:24:05;16.00;99.90
24252;DHT22;12380;51.118;4.176;2023-05-07T04:26:30;16.00;99.90
24252;DHT22;12380;51.118;4.176;2023-05-07T04:28:59;15.90;99.90
24252;DHT22;12380;51.118;4.176;2023-05-07T04:31:25;15.80;99.90
24252;DHT22;12380;51.118;4.176;2023-05-07T04:33:51;15.70;99.90
24252;DHT22;12380;51.118;4.176;2023-05-07T04:36:16;15.70;99.90
24252;DHT22;12380;51.118;4.176;2023-05-07T04:38:42;15.80;99.90
24252;DHT22;12380;51.118;4.176;2023-05-07T04:41:08;16.00;99.90
24252;DHT22;12380;51.118;4.176;2023-05-07T04:43:34;16.10;99.90
24252;DHT22;12380;51.118;4.176;2023-05-07T04:46:01;16.10;99.90
24252;DHT22;12380;51.118;4.176;2023-05-07T04:48:27;16.10;99.90
24252;DHT22;12380;51.118;4.176;2023-05-07T04:50:57;16.20;99.90
24252;DHT22;12380;51.118;4.176;2023-05-07T04:53:25;16.30;99.90
24252;DHT22;12380;51.118;4.176;2023-05-07T04:55:57;16.40;99.90
24252;DHT22;12380;51.118;4.176;2023-05-07T04:58:23;16.40;99.90
24252;DHT22;12380;51.118;4.176;2023-05-07T05:00:50;16.50;99.90
24252;DHT22;12380;51.118;4.176;2023-05-07T05:03:17;16.60;99.90
24252;DHT22;12380;51.118;4.176;2023-05-07T05:05:43;16.60;99.90
24252;DHT22;12380;51.118;4.176;2023-05-07T05:08:08;16.50;99.90
24252;DHT22;12380;51.118;4.176;2023-05-07T05:10:36;16.60;99.90
24252;DHT22;12380;51.118;4.176;2023-05-07T05:13:02;16.60;99.90
24252;DHT22;12380;51.118;4.176;2023-05-07T05:15:27;16.60;99.90
24252;DHT22;12380;51.118;4.176;2023-05-07T05:17:55;16.70;99.90
24252;DHT22;12380;51.118;4.176;2023-05-07T05:20:21;16.80;99.90
24252;DHT22;12380;51.118;4.176;2023-05-07T05:22:46;16.70;99.90
24252;DHT22;12380;51.118;4.176;2023-05-07T05:25:15;16.70;99.90
24252;DHT22;12380;51.118;4.176;2023-05-07T05:27:40;16.70;99.90
24252;DHT22;12380;51.118;4.176;2023-05-07T05:30:06;16.90;99.90
24252;DHT22;12380;51.118;4.176;2023-05-07T05:32:34;16.80;99.90
24252;DHT22;12380;51.118;4.176;2023-05-07T05:34:59;16.60;99.90
24252;DHT22;12380;51.118;4.176;2023-05-07T05:37:25;16.50;99.90
24252;DHT22;12380;51.118;4.176;2023-05-07T05:39:55;16.40;99.90
24252;DHT22;12380;51.118;4.176;2023-05-07T05:42:21;16.40;99.90
24252;DHT22;12380;51.118;4.176;2023-05-07T05:44:49;16.60;99.90
24252;DHT22;12380;51.118;4.176;2023-05-07T05:47:14;16.70;99.90
24252;DHT22;12380;51.118;4.176;2023-05-07T05:49:40;16.90;99.90
24252;DHT22;12380;51.118;4.176;2023-05-07T05:52:05;17.00;99.90
24252;DHT22;12380;51.118;4.176;2023-05-07T05:54:31;17.00;99.90
24252;DHT22;12380;51.118;4.176;2023-05-07T05:56:56;17.20;99.90
24252;DHT22;12380;51.118;4.176;2023-05-07T05:59:22;17.20;99.90
24252;DHT22;12380;51.118;4.176;2023-05-07T06:01:48;17.20;99.90
24252;DHT22;12380;51.118;4.176;2023-05-07T06:04:14;17.30;99.90
24252;DHT22;12380;51.118;4.176;2023-05-07T06:06:39;17.30;99.90
24252;DHT22;12380;51.118;4.176;2023-05-07T06:09:08;17.30;99.90
24252;DHT22;12380;51.118;4.176;2023-05-07T06:11:33;17.30;99.90
24252;DHT22;12380;51.118;4.176;2023-05-07T06:13:59;17.00;99.90
24252;DHT22;12380;51.118;4.176;2023-05-07T06:16:24;17.10;99.90
24252;DHT22;12380;51.118;4.176;2023-05-07T06:18:50;17.30;99.90
24252;DHT22;12380;51.118;4.176;2023-05-07T06:21:15;17.30;99.90
24252;DHT22;12380;51.118;4.176;2023-05-07T06:23:41;17.50;99.90
24252;DHT22;12380;51.118;4.176;2023-05-07T06:26:07;17.50;99.90
24252;DHT22;12380;51.118;4.176;2023-05-07T06:28:32;17.30;99.90
24252;DHT22;12380;51.118;4.176;2023-05-07T06:31:19;17.50;99.90
24252;DHT22;12380;51.118;4.176;2023-05-07T06:33:48;17.40;99.90
24252;DHT22;12380;51.118;4.176;2023-05-07T06:36:13;17.40;99.90
24252;DHT22;12380;51.118;4.176;2023-05-07T06:38:39;17.20;99.90
24252;DHT22;12380;51.118;4.176;2023-05-07T06:41:07;17.30;99.90
24252;DHT22;12380;51.118;4.176;2023-05-07T06:43:33;17.50;99.90
24252;DHT22;12380;51.118;4.176;2023-05-07T06:45:59;17.50;99.90
24252;DHT22;12380;51.118;4.176;2023-05-07T06:48:27;17.40;99.90
24252;DHT22;12380;51.118;4.176;2023-05-07T06:50:52;17.30;99.90
24252;DHT22;12380;51.118;4.176;2023-05-07T06:53:20;17.30;99.90
24252;DHT22;12380;51.118;4.176;2023-05-07T06:55:45;17.40;99.90
24252;DHT22;12380;51.118;4.176;2023-05-07T06:58:11;17.40;99.90
24252;DHT22;12380;51.118;4.176;2023-05-07T07:00:37;17.20;99.90
24252;DHT22;12380;51.118;4.176;2023-05-07T07:03:02;17.20;99.90
24252;DHT22;12380;51.118;4.176;2023-05-07T07:05:28;17.20;99.90
24252;DHT22;12380;51.118;4.176;2023-05-07T07:07:53;17.20;99.90
24252;DHT22;12380;51.118;4.176;2023-05-07T07:10:19;17.10;99.90
24252;DHT22;12380;51.118;4.176;2023-05-07T07:12:48;17.00;99.90
24252;DHT22;12380;51.118;4.176;2023-05-07T07:15:14;17.00;99.90
24252;DHT22;12380;51.118;4.176;2023-05-07T07:17:39;17.00;99.90
24252;DHT22;12380;51.118;4.176;2023-05-07T07:20:07;16.90;99.90
24252;DHT22;12380;51.118;4.176;2023-05-07T07:22:33;17.00;99.90
24252;DHT22;12380;51.118;4.176;2023-05-07T07:24:58;16.90;99.90
24252;DHT22;12380;51.118;4.176;2023-05-07T07:27:27;17.20;99.90
24252;DHT22;12380;51.118;4.176;2023-05-07T07:29:52;17.20;99.90
24252;DHT22;12380;51.118;4.176;2023-05-07T07:32:18;17.50;99.90
24252;DHT22;12380;51.118;4.176;2023-05-07T07:34:43;17.60;99.90
24252;DHT22;12380;51.118;4.176;2023-05-07T07:37:12;17.60;99.90
24252;DHT22;12380;51.118;4.176;2023-05-07T07:39:37;17.80;99.90
24252;DHT22;12380;51.118;4.176;2023-05-07T07:42:03;18.00;99.90
24252;DHT22;12380;51.118;4.176;2023-05-07T07:44:28;18.10;99.90
24252;DHT22;12380;51.118;4.176;2023-05-07T07:46:54;18.10;99.90
24252;DHT22;12380;51.118;4.176;2023-05-07T07:49:19;18.10;99.90
24252;DHT22;12380;51.118;4.176;2023-05-07T07:51:45;17.70;99.90
24252;DHT22;12380;51.118;4.176;2023-05-07T07:54:10;17.70;99.90
24252;DHT22;12380;51.118;4.176;2023-05-07T07:56:36;17.30;99.90
24252;DHT22;12380;51.118;4.176;2023-05-07T07:59:02;17.20;99.90
24252;DHT22;12380;51.118;4.176;2023-05-07T08:01:30;17.40;99.90
24252;DHT22;12380;51.118;4.176;2023-05-07T08:03:55;17.50;99.90
24252;DHT22;12380;51.118;4.176;2023-05-07T08:06:24;17.50;99.90
24252;DHT22;12380;51.118;4.176;2023-05-07T08:08:52;17.50;99.90
24252;DHT22;12380;51.118;4.176;2023-05-07T08:11:17;17.40;99.90
24252;DHT22;12380;51.118;4.176;2023-05-07T08:13:43;17.40;99.90
24252;DHT22;12380;51.118;4.176;2023-05-07T08:16:09;17.40;99.90
24252;DHT22;12380;51.118;4.176;2023-05-07T08:18:35;17.30;99.90
24252;DHT22;12380;51.118;4.176;2023-05-07T08:21:01;17.40;99.90
24252;DHT22;12380;51.118;4.176;2023-05-07T08:23:26;17.50;99.90
24252;DHT22;12380;51.118;4.176;2023-05-07T08:25:52;17.60;99.90
24252;DHT22;12380;51.118;4.176;2023-05-07T08:28:18;17.90;99.90
24252;DHT22;12380;51.118;4.176;2023-05-07T08:30:44;17.70;99.90
24252;DHT22;12380;51.118;4.176;2023-05-07T08:33:10;17.50;99.90
24252;DHT22;12380;51.118;4.176;2023-05-07T08:35:35;17.30;99.90
24252;DHT22;12380;51.118;4.176;2023-05-07T08:38:01;17.10;99.90
24252;DHT22;12380;51.118;4.176;2023-05-07T08:40:26;17.20;99.90
24252;DHT22;12380;51.118;4.176;2023-05-07T08:42:53;17.00;99.90
24252;DHT22;12380;51.118;4.176;2023-05-07T08:45:21;17.10;99.90
24252;DHT22;12380;51.118;4.176;2023-05-07T08:47:47;17.10;99.90
24252;DHT22;12380;51.118;4.176;2023-05-07T08:50:17;17.20;99.90
24252;DHT22;12380;51.118;4.176;2023-05-07T08:52:43;17.10;99.90
24252;DHT22;12380;51.118;4.176;2023-05-07T08:55:09;17.20;99.90
24252;DHT22;12380;51.118;4.176;2023-05-07T08:57:35;17.40;99.90
24252;DHT22;12380;51.118;4.176;2023-05-07T09:00:02;17.60;99.90
24252;DHT22;12380;51.118;4.176;2023-05-07T09:02:28;17.50;99.90
24252;DHT22;12380;51.118;4.176;2023-05-07T09:04:53;17.70;99.90
24252;DHT22;12380;51.118;4.176;2023-05-07T09:07:19;17.60;99.90
24252;DHT22;12380;51.118;4.176;2023-05-07T09:09:45;17.60;99.90
24252;DHT22;12380;51.118;4.176;2023-05-07T09:12:11;17.50;99.90
24252;DHT22;12380;51.118;4.176;2023-05-07T09:14:37;17.50;99.90
24252;DHT22;12380;51.118;4.176;2023-05-07T09:17:04;17.70;99.90
24252;DHT22;12380;51.118;4.176;2023-05-07T09:19:30;17.70;99.90
24252;DHT22;12380;51.118;4.176;2023-05-07T09:21:59;17.60;99.90
24252;DHT22;12380;51.118;4.176;2023-05-07T09:24:26;17.40;99.90
24252;DHT22;12380;51.118;4.176;2023-05-07T09:26:53;17.50;99.90
24252;DHT22;12380;51.118;4.176;2023-05-07T09:29:20;17.40;99.90
24252;DHT22;12380;51.118;4.176;2023-05-07T09:31:46;17.30;99.90
24252;DHT22;12380;51.118;4.176;2023-05-07T09:34:11;17.30;99.90
24252;DHT22;12380;51.118;4.176;2023-05-07T09:36:39;17.40;99.90
24252;DHT22;12380;51.118;4.176;2023-05-07T09:39:05;17.40;99.90
24252;DHT22;12380;51.118;4.176;2023-05-07T09:41:30;17.10;99.90
24252;DHT22;12380;51.118;4.176;2023-05-07T09:43:59;17.10;99.90
24252;DHT22;12380;51.118;4.176;2023-05-07T09:46:30;17.10;99.90
24252;DHT22;12380;51.118;4.176;2023-05-07T09:48:59;17.20;99.90
24252;DHT22;12380;51.118;4.176;2023-05-07T09:51:34;17.20;99.90
24252;DHT22;12380;51.118;4.176;2023-05-07T09:54:03;17.30;99.90
24252;DHT22;12380;51.118;4.176;2023-05-07T09:56:30;17.00;99.90
24252;DHT22;12380;51.118;4.176;2023-05-07T09:58:57;17.10;99.90
24252;DHT22;12380;51.118;4.176;2023-05-07T10:01:27;17.00;99.90
24252;DHT22;12380;51.118;4.176;2023-05-07T10:03:55;17.30;99.90
24252;DHT22;12380;51.118;4.176;2023-05-07T10:06:21;17.50;99.90
24252;DHT22;12380;51.118;4.176;2023-05-07T10:08:47;17.60;99.90
24252;DHT22;12380;51.118;4.176;2023-05-07T10:11:13;17.80;99.90
24252;DHT22;12380;51.118;4.176;2023-05-07T10:13:41;17.50;99.90
24252;DHT22;12380;51.118;4.176;2023-05-07T10:16:07;17.50;99.90
24252;DHT22;12380;51.118;4.176;2023-05-07T10:18:35;17.60;99.90
24252;DHT22;12380;51.118;4.176;2023-05-07T10:21:04;17.40;99.90
24252;DHT22;12380;51.118;4.176;2023-05-07T10:23:32;17.30;99.90
24252;DHT22;12380;51.118;4.176;2023-05-07T10:26:01;17.10;99.90
24252;DHT22;12380;51.118;4.176;2023-05-07T10:28:27;17.20;99.90
24252;DHT22;12380;51.118;4.176;2023-05-07T10:31:33;17.20;99.90
24252;DHT22;12380;51.118;4.176;2023-05-07T10:33:46;17.60;99.90
24252;DHT22;12380;51.118;4.176;2023-05-07T10:36:13;17.90;99.90
24252;DHT22;12380;51.118;4.176;2023-05-07T10:38:39;18.30;99.90
24252;DHT22;12380;51.118;4.176;2023-05-07T10:41:06;18.40;99.90
24252;DHT22;12380;51.118;4.176;2023-05-07T10:43:41;18.00;99.90
24252;DHT22;12380;51.118;4.176;2023-05-07T10:46:10;17.90;99.90
24252;DHT22;12380;51.118;4.176;2023-05-07T10:49:24;17.70;99.90
24252;DHT22;12380;51.118;4.176;2023-05-07T10:51:24;17.50;99.90
24252;DHT22;12380;51.118;4.176;2023-05-07T10:54:17;17.70;99.90
24252;DHT22;12380;51.118;4.176;2023-05-07T10:56:39;17.60;99.90
24252;DHT22;12380;51.118;4.176;2023-05-07T11:04:18;18.10;99.90
24252;DHT22;12380;51.118;4.176;2023-05-07T11:07:09;18.20;99.90
24252;DHT22;12380;51.118;4.176;2023-05-07T11:13:01;17.90;99.90
24252;DHT22;12380;51.118;4.176;2023-05-07T11:15:14;17.80;99.90
24252;DHT22;12380;51.118;4.176;2023-05-07T11:17:55;18.00;99.90
24252;DHT22;12380;51.118;4.176;2023-05-07T11:20:21;17.80;99.90
24252;DHT22;12380;51.118;4.176;2023-05-07T11:23:10;17.90;99.90
24252;DHT22;12380;51.118;4.176;2023-05-07T11:25:58;17.90;99.90
24252;DHT22;12380;51.118;4.176;2023-05-07T11:28:24;18.20;99.90
24252;DHT22;12380;51.118;4.176;2023-05-07T11:30:50;18.30;99.90
24252;DHT22;12380;51.118;4.176;2023-05-07T11:33:18;18.20;99.90
24252;DHT22;12380;51.118;4.176;2023-05-07T11:35:43;18.00;99.90
24252;DHT22;12380;51.118;4.176;2023-05-07T11:38:12;17.90;99.90
24252;DHT22;12380;51.118;4.176;2023-05-07T11:43:19;18.40;99.90
24252;DHT22;12380;51.118;4.176;2023-05-07T11:45:47;18.60;99.90
24252;DHT22;12380;51.118;4.176;2023-05-07T11:48:13;18.30;99.90
24252;DHT22;12380;51.118;4.176;2023-05-07T11:50:51;18.40;99.90
24252;DHT22;12380;51.118;4.176;2023-05-07T11:53:22;18.50;99.90
24252;DHT22;12380;51.118;4.176;2023-05-07T11:55:55;19.00;99.90
24252;DHT22;12380;51.118;4.176;2023-05-07T11:58:23;19.10;99.90
24252;DHT22;12380;51.118;4.176;2023-05-07T12:00:49;18.50;99.90
24252;DHT22;12380;51.118;4.176;2023-05-07T12:03:15;18.50;99.90
24252;DHT22;12380;51.118;4.176;2023-05-07T12:05:40;18.70;99.90
24252;DHT22;12380;51.118;4.176;2023-05-07T12:08:07;18.60;99.90
24252;DHT22;12380;51.118;4.176;2023-05-07T12:10:33;18.70;99.90
24252;DHT22;12380;51.118;4.176;2023-05-07T12:12:58;18.60;99.90
24252;DHT22;12380;51.118;4.176;2023-05-07T12:15:24;18.70;99.90
24252;DHT22;12380;51.118;4.176;2023-05-07T12:17:51;18.60;99.90
24252;DHT22;12380;51.118;4.176;2023-05-07T12:20:17;18.50;99.90
24252;DHT22;12380;51.118;4.176;2023-05-07T12:22:43;18.90;99.90
24252;DHT22;12380;51.118;4.176;2023-05-07T12:25:09;19.20;99.90
24252;DHT22;12380;51.118;4.176;2023-05-07T12:27:36;19.60;99.90
24252;DHT22;12380;51.118;4.176;2023-05-07T12:30:02;19.60;99.90
24252;DHT22;12380;51.118;4.176;2023-05-07T12:32:30;19.60;99.90
24252;DHT22;12380;51.118;4.176;2023-05-07T12:35:01;19.40;99.90
24252;DHT22;12380;51.118;4.176;2023-05-07T12:37:27;19.90;99.90
24252;DHT22;12380;51.118;4.176;2023-05-07T12:42:37;20.10;99.90
24252;DHT22;12380;51.118;4.176;2023-05-07T12:45:11;19.80;99.90
24252;DHT22;12380;51.118;4.176;2023-05-07T12:47:37;19.80;99.90
24252;DHT22;12380;51.118;4.176;2023-05-07T12:50:04;20.10;99.90
24252;DHT22;12380;51.118;4.176;2023-05-07T12:52:30;20.20;99.90
24252;DHT22;12380;51.118;4.176;2023-05-07T12:54:56;20.50;99.90
24252;DHT22;12380;51.118;4.176;2023-05-07T12:57:22;20.40;99.90
24252;DHT22;12380;51.118;4.176;2023-05-07T12:59:48;20.10;99.90
24252;DHT22;12380;51.118;4.176;2023-05-07T13:02:13;19.80;99.90
24252;DHT22;12380;51.118;4.176;2023-05-07T13:04:39;19.50;99.90
24252;DHT22;12380;51.118;4.176;2023-05-07T13:07:05;19.30;99.90
24252;DHT22;12380;51.118;4.176;2023-05-07T13:09:32;19.20;99.90
24252;DHT22;12380;51.118;4.176;2023-05-07T13:11:58;19.20;99.90
24252;DHT22;12380;51.118;4.176;2023-05-07T13:14:26;19.30;99.90
24252;DHT22;12380;51.118;4.176;2023-05-07T13:16:52;19.50;99.90
24252;DHT22;12380;51.118;4.176;2023-05-07T13:19:18;19.50;99.90
24252;DHT22;12380;51.118;4.176;2023-05-07T13:21:43;19.50;99.90
24252;DHT22;12380;51.118;4.176;2023-05-07T13:24:11;19.90;99.90
24252;DHT22;12380;51.118;4.176;2023-05-07T13:26:39;20.20;99.90
24252;DHT22;12380;51.118;4.176;2023-05-07T13:29:05;20.30;99.90
24252;DHT22;12380;51.118;4.176;2023-05-07T13:31:31;20.20;99.90
24252;DHT22;12380;51.118;4.176;2023-05-07T13:33:59;20.40;99.90
24252;DHT22;12380;51.118;4.176;2023-05-07T13:36:25;20.00;99.90
24252;DHT22;12380;51.118;4.176;2023-05-07T13:38:50;20.00;99.90
24252;DHT22;12380;51.118;4.176;2023-05-07T13:41:16;19.80;99.90
24252;DHT22;12380;51.118;4.176;2023-05-07T13:43:42;19.80;99.90
24252;DHT22;12380;51.118;4.176;2023-05-07T13:46:08;20.00;99.90
24252;DHT22;12380;51.118;4.176;2023-05-07T13:48:33;19.90;99.90
24252;DHT22;12380;51.118;4.176;2023-05-07T13:50:59;19.70;99.90
24252;DHT22;12380;51.118;4.176;2023-05-07T13:53:24;19.80;99.90
24252;DHT22;12380;51.118;4.176;2023-05-07T13:55:50;19.90;99.90
24252;DHT22;12380;51.118;4.176;2023-05-07T13:58:16;20.00;99.90
24252;DHT22;12380;51.118;4.176;2023-05-07T14:00:41;20.20;99.90
24252;DHT22;12380;51.118;4.176;2023-05-07T14:03:07;20.10;99.90
24252;DHT22;12380;51.118;4.176;2023-05-07T14:05:32;20.30;99.90
24252;DHT22;12380;51.118;4.176;2023-05-07T14:07:58;20.60;99.90
24252;DHT22;12380;51.118;4.176;2023-05-07T14:10:26;20.80;99.90
24252;DHT22;12380;51.118;4.176;2023-05-07T14:12:51;20.90;99.90
24252;DHT22;12380;51.118;4.176;2023-05-07T14:15:21;21.10;99.90
24252;DHT22;12380;51.118;4.176;2023-05-07T14:17:46;21.20;99.90
24252;DHT22;12380;51.118;4.176;2023-05-07T14:20:12;21.20;99.90
24252;DHT22;12380;51.118;4.176;2023-05-07T14:22:38;20.90;99.90
24252;DHT22;12380;51.118;4.176;2023-05-07T14:25:03;20.80;99.90
24252;DHT22;12380;51.118;4.176;2023-05-07T14:27:29;21.00;99.90
24252;DHT22;12380;51.118;4.176;2023-05-07T14:29:54;21.00;99.90
24252;DHT22;12380;51.118;4.176;2023-05-07T14:32:20;20.90;99.90
24252;DHT22;12380;51.118;4.176;2023-05-07T14:34:48;20.70;99.90
24252;DHT22;12380;51.118;4.176;2023-05-07T14:37:13;20.60;99.90
24252;DHT22;12380;51.118;4.176;2023-05-07T14:39:39;20.90;99.90
24252;DHT22;12380;51.118;4.176;2023-05-07T14:42:05;20.80;99.90
24252;DHT22;12380;51.118;4.176;2023-05-07T14:44:34;20.40;99.90
24252;DHT22;12380;51.118;4.176;2023-05-07T14:47:02;20.80;99.90
24252;DHT22;12380;51.118;4.176;2023-05-07T14:49:27;20.80;99.90
24252;DHT22;12380;51.118;4.176;2023-05-07T14:51:53;20.90;99.90
24252;DHT22;12380;51.118;4.176;2023-05-07T14:54:21;20.90;99.90
24252;DHT22;12380;51.118;4.176;2023-05-07T14:56:46;21.20;99.90
24252;DHT22;12380;51.118;4.176;2023-05-07T14:59:12;21.40;99.90
24252;DHT22;12380;51.118;4.176;2023-05-07T15:01:38;21.30;99.90
24252;DHT22;12380;51.118;4.176;2023-05-07T15:04:05;20.90;99.90
24252;DHT22;12380;51.118;4.176;2023-05-07T15:06:33;20.80;99.90
24252;DHT22;12380;51.118;4.176;2023-05-07T15:08:59;20.90;99.90
24252;DHT22;12380;51.118;4.176;2023-05-07T15:11:25;21.20;99.90
24252;DHT22;12380;51.118;4.176;2023-05-07T15:13:50;21.50;99.90
24252;DHT22;12380;51.118;4.176;2023-05-07T15:16:16;21.50;99.90
24252;DHT22;12380;51.118;4.176;2023-05-07T15:18:42;21.50;99.90
24252;DHT22;12380;51.118;4.176;2023-05-07T15:21:07;21.30;99.90
24252;DHT22;12380;51.118;4.176;2023-05-07T15:23:33;20.90;99.90
24252;DHT22;12380;51.118;4.176;2023-05-07T15:25:59;21.40;99.90
24252;DHT22;12380;51.118;4.176;2023-05-07T15:28:24;21.90;99.90
24252;DHT22;12380;51.118;4.176;2023-05-07T15:30:50;22.30;99.90
24252;DHT22;12380;51.118;4.176;2023-05-07T15:33:16;21.60;99.90
24252;DHT22;12380;51.118;4.176;2023-05-07T15:35:43;21.10;99.90
24252;DHT22;12380;51.118;4.176;2023-05-07T15:38:09;21.10;99.90
24252;DHT22;12380;51.118;4.176;2023-05-07T15:40:35;20.80;99.90